Nagaleader — VRDD5 — position and weather

sailwx.info

Track history (hours):
 
Tides and Currents Weather Stations Pressure Air Temp Water Temp Dewpoint Dewpoint Depression Visibility Wind Speed Wind Dir Waves Ship Positions

Nagaleader

Last reported at 2015-Aug-27 00:33 UTC. Time now 2015-Aug-27 20:39 UTC.
Position N 26°00' E 119°29'.

Length 113 m; draft 6.5 m.

Type: Cargo ship. MMSI: 477926700.

Date/timePositionNaut miles runAvg speedWind from/ knotsBaromVisibWave heightAir tempDewpointWater temp
2015-Aug-27 00:33N 26°00' E 119°29'0 0.0
2015-Aug-26 23:33N 26°00' E 119°29'0 0.0
2015-Aug-26 22:27N 26°00' E 119°29'0 0.0
2015-Aug-26 19:06N 26°00' E 119°29'0 0.0
2015-Aug-26 18:24N 26°00' E 119°29'0 0.1
2015-Aug-26 17:27N 26°00' E 119°29'0 0.0
2015-Aug-26 16:30N 26°00' E 119°29'0 0.1
2015-Aug-26 15:30N 26°00' E 119°29'0 0.1
2015-Aug-26 14:30N 26°00' E 119°29'0 0.1
2015-Aug-26 13:30N 26°00' E 119°29'0 0.0
2015-Aug-26 12:30N 26°00' E 119°29'0 0.0
2015-Aug-26 11:30N 26°00' E 119°29'0 0.0
2015-Aug-26 09:21N 26°00' E 119°29'2 2.2
2015-Aug-26 08:32N 26°02' E 119°30'45 6.5
2015-Aug-26 01:33N 25°17' E 119°38'54 3.5
2015-Aug-25 10:09N 24°24' E 119°34'102 2.1
2015-Aug-23 10:31N 26°05' E 119°43'1010.3
2015-Aug-23 09:33N 26°06' E 119°32'7 6.8
2015-Aug-23 08:33N 26°00' E 119°29'0 0.0
2015-Aug-23 07:32N 26°00' E 119°29'0 0.0
2015-Aug-23 06:33N 26°00' E 119°29'0 0.0
2015-Aug-23 05:33N 26°00' E 119°29'0 0.0
2015-Aug-23 04:33N 26°00' E 119°29'0 0.0
2015-Aug-23 03:33N 26°00' E 119°29'0 0.0
2015-Aug-23 02:33N 26°00' E 119°29'0 0.0
2015-Aug-23 01:33N 26°00' E 119°29'0 0.0
2015-Aug-23 00:33N 26°00' E 119°29'0 0.0
2015-Aug-22 23:33N 26°00' E 119°29'0 0.0
2015-Aug-22 22:30N 26°00' E 119°29'0 0.0
2015-Aug-22 21:33N 26°00' E 119°29'0 0.0
2015-Aug-22 20:33N 26°00' E 119°29'0 0.0
2015-Aug-22 19:30N 26°00' E 119°29'0 0.3
2015-Aug-22 18:33N 26°00' E 119°29'9 9.2
2015-Aug-22 17:34N 26°08' E 119°34'78 6.5
2015-Aug-22 05:34N 24°52' E 119°11'9 8.8
2015-Aug-22 04:34N 24°47' E 119°03'9 9.3
2015-Aug-22 03:34N 24°38' E 119°03'86 1.7
2015-Aug-20 00:34N 26°00' E 119°29'0 0.0
2015-Aug-19 23:33N 26°00' E 119°29'0 0.0
2015-Aug-19 22:24N 26°00' E 119°29'0 0.0
2015-Aug-19 21:30N 26°00' E 119°29'0 0.0
2015-Aug-19 20:30N 26°00' E 119°29'0 0.0
2015-Aug-19 19:23N 26°00' E 119°29'0 0.0
2015-Aug-19 18:29N 26°00' E 119°29'0 0.0
2015-Aug-19 17:23N 26°00' E 119°29'0 0.0
2015-Aug-19 16:29N 26°00' E 119°29'0 0.0
2015-Aug-19 15:23N 26°00' E 119°29'0 0.0
2015-Aug-19 14:29N 26°00' E 119°29'0 0.0
2015-Aug-19 13:17N 26°00' E 119°29'0 0.0
2015-Aug-19 12:29N 26°00' E 119°29'2 1.8
2015-Aug-19 11:33N 26°02' E 119°30'45 5.6
2015-Aug-19 03:33N 25°17' E 119°38'1110.3
2015-Aug-19 02:27N 25°20' E 119°25'9 9.4
2015-Aug-19 01:32N 25°25' E 119°17'0 0.1
2015-Aug-19 00:31N 25°25' E 119°17'0 0.0
2015-Aug-18 23:32N 25°25' E 119°17'0 0.0
2015-Aug-18 22:21N 25°25' E 119°17'0 0.0
2015-Aug-18 21:27N 25°25' E 119°17'0 0.0
2015-Aug-18 20:33N 25°25' E 119°17'1 0.7
2015-Aug-18 19:34N 25°24' E 119°18'9 8.9
2015-Aug-18 18:33N 25°18' E 119°25'  
Track history (hours):
 
Tides and Currents Weather Stations Pressure Air Temp Water Temp Dewpoint Dewpoint Depression Visibility Wind Speed Wind Dir Waves Ship Positions

Nagaleader

Last reported at 2015-Aug-27 00:33 UTC. Time now 2015-Aug-27 20:39 UTC.
Position N 26°00' E 119°29'.

Length 113 m; draft 6.5 m.

Type: Cargo ship. MMSI: 477926700.

Date/timePositionNaut miles runAvg speedWind from/ knotsBaromVisibWave heightAir tempDewpointWater temp
2015-Aug-27 00:33N 26°00' E 119°29'0 0.0
2015-Aug-26 23:33N 26°00' E 119°29'0 0.0
2015-Aug-26 22:27N 26°00' E 119°29'0 0.0
2015-Aug-26 19:06N 26°00' E 119°29'0 0.0
2015-Aug-26 18:24N 26°00' E 119°29'0 0.1
2015-Aug-26 17:27N 26°00' E 119°29'0 0.0
2015-Aug-26 16:30N 26°00' E 119°29'0 0.1
2015-Aug-26 15:30N 26°00' E 119°29'0 0.1
2015-Aug-26 14:30N 26°00' E 119°29'0 0.1
2015-Aug-26 13:30N 26°00' E 119°29'0 0.0
2015-Aug-26 12:30N 26°00' E 119°29'0 0.0
2015-Aug-26 11:30N 26°00' E 119°29'0 0.0
2015-Aug-26 09:21N 26°00' E 119°29'2 2.2
2015-Aug-26 08:32N 26°02' E 119°30'45 6.5
2015-Aug-26 01:33N 25°17' E 119°38'54 3.5
2015-Aug-25 10:09N 24°24' E 119°34'102 2.1
2015-Aug-23 10:31N 26°05' E 119°43'1010.3
2015-Aug-23 09:33N 26°06' E 119°32'7 6.8
2015-Aug-23 08:33N 26°00' E 119°29'0 0.0
2015-Aug-23 07:32N 26°00' E 119°29'0 0.0
2015-Aug-23 06:33N 26°00' E 119°29'0 0.0
2015-Aug-23 05:33N 26°00' E 119°29'0 0.0
2015-Aug-23 04:33N 26°00' E 119°29'0 0.0
2015-Aug-23 03:33N 26°00' E 119°29'0 0.0
2015-Aug-23 02:33N 26°00' E 119°29'0 0.0
2015-Aug-23 01:33N 26°00' E 119°29'0 0.0
2015-Aug-23 00:33N 26°00' E 119°29'0 0.0
2015-Aug-22 23:33N 26°00' E 119°29'0 0.0
2015-Aug-22 22:30N 26°00' E 119°29'0 0.0
2015-Aug-22 21:33N 26°00' E 119°29'0 0.0
2015-Aug-22 20:33N 26°00' E 119°29'0 0.0
2015-Aug-22 19:30N 26°00' E 119°29'0 0.3
2015-Aug-22 18:33N 26°00' E 119°29'9 9.2
2015-Aug-22 17:34N 26°08' E 119°34'78 6.5
2015-Aug-22 05:34N 24°52' E 119°11'9 8.8
2015-Aug-22 04:34N 24°47' E 119°03'9 9.3
2015-Aug-22 03:34N 24°38' E 119°03'86 1.7
2015-Aug-20 00:34N 26°00' E 119°29'0 0.0
2015-Aug-19 23:33N 26°00' E 119°29'0 0.0
2015-Aug-19 22:24N 26°00' E 119°29'0 0.0
2015-Aug-19 21:30N 26°00' E 119°29'0 0.0
2015-Aug-19 20:30N 26°00' E 119°29'0 0.0
2015-Aug-19 19:23N 26°00' E 119°29'0 0.0
2015-Aug-19 18:29N 26°00' E 119°29'0 0.0
2015-Aug-19 17:23N 26°00' E 119°29'0 0.0
2015-Aug-19 16:29N 26°00' E 119°29'0 0.0
2015-Aug-19 15:23N 26°00' E 119°29'0 0.0
2015-Aug-19 14:29N 26°00' E 119°29'0 0.0
2015-Aug-19 13:17N 26°00' E 119°29'0 0.0
2015-Aug-19 12:29N 26°00' E 119°29'2 1.8
2015-Aug-19 11:33N 26°02' E 119°30'45 5.6
2015-Aug-19 03:33N 25°17' E 119°38'1110.3
2015-Aug-19 02:27N 25°20' E 119°25'9 9.4
2015-Aug-19 01:32N 25°25' E 119°17'0 0.1
2015-Aug-19 00:31N 25°25' E 119°17'0 0.0
2015-Aug-18 23:32N 25°25' E 119°17'0 0.0
2015-Aug-18 22:21N 25°25' E 119°17'0 0.0
2015-Aug-18 21:27N 25°25' E 119°17'0 0.0
2015-Aug-18 20:33N 25°25' E 119°17'1 0.7
2015-Aug-18 19:34N 25°24' E 119°18'9 8.9
2015-Aug-18 18:33N 25°18' E 119°25'  

Dump ship's entire track history